sensor_id;sensor_type;location;lat;lon;timestamp;P1;durP1;ratioP1;P2;durP2;ratioP2
17214;SDS011;8723;51.502;6.918;2022-07-25T00:00:22;10.93;;;9.93;;
17214;SDS011;8723;51.502;6.918;2022-07-25T00:02:49;10.40;;;9.50;;
17214;SDS011;8723;51.502;6.918;2022-07-25T00:05:16;11.23;;;10.02;;
17214;SDS011;8723;51.502;6.918;2022-07-25T00:07:45;10.40;;;9.50;;
17214;SDS011;8723;51.502;6.918;2022-07-25T00:10:12;10.07;;;9.05;;
17214;SDS011;8723;51.502;6.918;2022-07-25T00:12:39;10.23;;;9.07;;
17214;SDS011;8723;51.502;6.918;2022-07-25T00:15:07;9.40;;;8.50;;
17214;SDS011;8723;51.502;6.918;2022-07-25T00:17:34;9.73;;;8.73;;
17214;SDS011;8723;51.502;6.918;2022-07-25T00:20:02;9.60;;;8.60;;
17214;SDS011;8723;51.502;6.918;2022-07-25T00:22:29;9.80;;;8.80;;
17214;SDS011;8723;51.502;6.918;2022-07-25T00:24:57;9.48;;;8.48;;
17214;SDS011;8723;51.502;6.918;2022-07-25T00:27:25;8.93;;;8.13;;
17214;SDS011;8723;51.502;6.918;2022-07-25T00:29:52;8.80;;;7.93;;
17214;SDS011;8723;51.502;6.918;2022-07-25T00:32:19;9.02;;;8.23;;
17214;SDS011;8723;51.502;6.918;2022-07-25T00:34:46;8.48;;;7.68;;
17214;SDS011;8723;51.502;6.918;2022-07-25T00:37:13;9.20;;;8.40;;
17214;SDS011;8723;51.502;6.918;2022-07-25T00:39:41;8.23;;;7.53;;
17214;SDS011;8723;51.502;6.918;2022-07-25T00:42:09;8.77;;;7.82;;
17214;SDS011;8723;51.502;6.918;2022-07-25T00:44:36;8.70;;;7.80;;
17214;SDS011;8723;51.502;6.918;2022-07-25T00:47:04;8.43;;;7.63;;
17214;SDS011;8723;51.502;6.918;2022-07-25T00:49:31;8.43;;;7.72;;
17214;SDS011;8723;51.502;6.918;2022-07-25T00:51:58;8.23;;;7.43;;
17214;SDS011;8723;51.502;6.918;2022-07-25T00:54:25;8.68;;;7.78;;
17214;SDS011;8723;51.502;6.918;2022-07-25T00:56:53;8.27;;;7.57;;
17214;SDS011;8723;51.502;6.918;2022-07-25T00:59:21;8.33;;;7.63;;
17214;SDS011;8723;51.502;6.918;2022-07-25T01:01:48;8.85;;;7.97;;
17214;SDS011;8723;51.502;6.918;2022-07-25T01:04:16;8.15;;;7.35;;
17214;SDS011;8723;51.502;6.918;2022-07-25T01:06:43;7.68;;;7.00;;
17214;SDS011;8723;51.502;6.918;2022-07-25T01:09:10;8.10;;;7.40;;
17214;SDS011;8723;51.502;6.918;2022-07-25T01:11:37;8.70;;;7.90;;
17214;SDS011;8723;51.502;6.918;2022-07-25T01:14:05;8.40;;;7.70;;
17214;SDS011;8723;51.502;6.918;2022-07-25T01:16:33;8.13;;;7.40;;
17214;SDS011;8723;51.502;6.918;2022-07-25T01:19:01;7.93;;;7.18;;
17214;SDS011;8723;51.502;6.918;2022-07-25T01:21:29;8.05;;;7.30;;
17214;SDS011;8723;51.502;6.918;2022-07-25T01:23:56;7.82;;;7.13;;
17214;SDS011;8723;51.502;6.918;2022-07-25T01:26:23;7.55;;;6.88;;
17214;SDS011;8723;51.502;6.918;2022-07-25T01:28:51;7.82;;;7.10;;
17214;SDS011;8723;51.502;6.918;2022-07-25T01:31:18;8.00;;;7.30;;
17214;SDS011;8723;51.502;6.918;2022-07-25T01:33:46;7.85;;;7.10;;
17214;SDS011;8723;51.502;6.918;2022-07-25T01:36:13;8.73;;;7.38;;
17214;SDS011;8723;51.502;6.918;2022-07-25T01:38:41;7.88;;;7.15;;
17214;SDS011;8723;51.502;6.918;2022-07-25T01:41:08;8.02;;;7.25;;
17214;SDS011;8723;51.502;6.918;2022-07-25T01:43:36;7.93;;;7.22;;
17214;SDS011;8723;51.502;6.918;2022-07-25T01:46:03;7.82;;;7.15;;
17214;SDS011;8723;51.502;6.918;2022-07-25T01:48:30;8.13;;;7.38;;
17214;SDS011;8723;51.502;6.918;2022-07-25T01:50:57;8.00;;;7.40;;
17214;SDS011;8723;51.502;6.918;2022-07-25T01:53:24;8.13;;;7.43;;
17214;SDS011;8723;51.502;6.918;2022-07-25T01:55:53;8.60;;;7.80;;
17214;SDS011;8723;51.502;6.918;2022-07-25T01:58:20;7.72;;;7.07;;
17214;SDS011;8723;51.502;6.918;2022-07-25T02:00:47;7.97;;;7.28;;
17214;SDS011;8723;51.502;6.918;2022-07-25T02:03:14;8.10;;;7.40;;
17214;SDS011;8723;51.502;6.918;2022-07-25T02:05:58;8.30;;;7.50;;
17214;SDS011;8723;51.502;6.918;2022-07-25T02:08:25;7.82;;;7.13;;
17214;SDS011;8723;51.502;6.918;2022-07-25T02:10:54;8.02;;;7.32;;
17214;SDS011;8723;51.502;6.918;2022-07-25T02:13:21;7.95;;;7.25;;
17214;SDS011;8723;51.502;6.918;2022-07-25T02:15:49;8.90;;;8.10;;
17214;SDS011;8723;51.502;6.918;2022-07-25T02:18:16;8.05;;;7.38;;
17214;SDS011;8723;51.502;6.918;2022-07-25T02:20:43;8.02;;;7.22;;
17214;SDS011;8723;51.502;6.918;2022-07-25T02:23:10;8.20;;;7.50;;
17214;SDS011;8723;51.502;6.918;2022-07-25T02:25:37;8.35;;;7.55;;
17214;SDS011;8723;51.502;6.918;2022-07-25T02:28:06;7.65;;;6.95;;
17214;SDS011;8723;51.502;6.918;2022-07-25T02:30:33;8.80;;;8.02;;
17214;SDS011;8723;51.502;6.918;2022-07-25T02:33:00;8.23;;;7.50;;
17214;SDS011;8723;51.502;6.918;2022-07-25T02:35:27;8.18;;;7.38;;
17214;SDS011;8723;51.502;6.918;2022-07-25T02:37:54;7.97;;;7.25;;
17214;SDS011;8723;51.502;6.918;2022-07-25T02:40:22;8.48;;;7.60;;
17214;SDS011;8723;51.502;6.918;2022-07-25T02:42:49;6.95;;;6.35;;
17214;SDS011;8723;51.502;6.918;2022-07-25T02:45:18;8.02;;;7.22;;
17214;SDS011;8723;51.502;6.918;2022-07-25T02:47:45;7.20;;;6.50;;
17214;SDS011;8723;51.502;6.918;2022-07-25T02:50:12;6.85;;;6.25;;
17214;SDS011;8723;51.502;6.918;2022-07-25T02:52:39;6.38;;;5.78;;
17214;SDS011;8723;51.502;6.918;2022-07-25T02:55:06;6.85;;;5.93;;
17214;SDS011;8723;51.502;6.918;2022-07-25T02:57:34;7.18;;;6.57;;
17214;SDS011;8723;51.502;6.918;2022-07-25T03:00:01;6.43;;;5.80;;
17214;SDS011;8723;51.502;6.918;2022-07-25T03:02:30;6.88;;;6.18;;
17214;SDS011;8723;51.502;6.918;2022-07-25T03:04:57;6.80;;;6.22;;
17214;SDS011;8723;51.502;6.918;2022-07-25T03:07:24;6.90;;;6.20;;
17214;SDS011;8723;51.502;6.918;2022-07-25T03:09:51;7.00;;;6.30;;
17214;SDS011;8723;51.502;6.918;2022-07-25T03:12:18;7.32;;;6.63;;
17214;SDS011;8723;51.502;6.918;2022-07-25T03:14:45;7.13;;;6.43;;
17214;SDS011;8723;51.502;6.918;2022-07-25T03:17:13;6.95;;;6.35;;
17214;SDS011;8723;51.502;6.918;2022-07-25T03:19:41;6.78;;;6.18;;
17214;SDS011;8723;51.502;6.918;2022-07-25T03:22:08;7.13;;;5.80;;
17214;SDS011;8723;51.502;6.918;2022-07-25T03:24:36;6.32;;;5.72;;
17214;SDS011;8723;51.502;6.918;2022-07-25T03:27:03;6.68;;;5.97;;
17214;SDS011;8723;51.502;6.918;2022-07-25T03:29:30;6.97;;;6.22;;
17214;SDS011;8723;51.502;6.918;2022-07-25T03:31:57;6.33;;;5.80;;
17214;SDS011;8723;51.502;6.918;2022-07-25T03:34:24;6.57;;;5.97;;
17214;SDS011;8723;51.502;6.918;2022-07-25T03:36:53;6.30;;;5.70;;
17214;SDS011;8723;51.502;6.918;2022-07-25T03:39:20;7.07;;;6.38;;
17214;SDS011;8723;51.502;6.918;2022-07-25T03:41:48;6.50;;;5.53;;
17214;SDS011;8723;51.502;6.918;2022-07-25T03:44:16;7.45;;;6.63;;
17214;SDS011;8723;51.502;6.918;2022-07-25T03:46:44;7.07;;;5.40;;
17214;SDS011;8723;51.502;6.918;2022-07-25T03:49:11;7.00;;;6.30;;
17214;SDS011;8723;51.502;6.918;2022-07-25T03:51:38;6.80;;;6.20;;
17214;SDS011;8723;51.502;6.918;2022-07-25T03:54:07;6.95;;;6.10;;
17214;SDS011;8723;51.502;6.918;2022-07-25T03:56:38;7.20;;;6.50;;
17214;SDS011;8723;51.502;6.918;2022-07-25T03:59:05;6.78;;;6.18;;
17214;SDS011;8723;51.502;6.918;2022-07-25T04:01:32;7.57;;;6.70;;
17214;SDS011;8723;51.502;6.918;2022-07-25T04:04:00;7.80;;;7.03;;
17214;SDS011;8723;51.502;6.918;2022-07-25T04:06:27;7.40;;;6.70;;
17214;SDS011;8723;51.502;6.918;2022-07-25T04:08:55;7.88;;;6.93;;
17214;SDS011;8723;51.502;6.918;2022-07-25T04:11:23;7.50;;;6.78;;
17214;SDS011;8723;51.502;6.918;2022-07-25T04:13:52;7.75;;;7.05;;
17214;SDS011;8723;51.502;6.918;2022-07-25T04:16:19;7.32;;;6.72;;
17214;SDS011;8723;51.502;6.918;2022-07-25T04:18:46;9.02;;;6.97;;
17214;SDS011;8723;51.502;6.918;2022-07-25T04:21:13;7.20;;;6.32;;
17214;SDS011;8723;51.502;6.918;2022-07-25T04:23:40;7.22;;;6.57;;
17214;SDS011;8723;51.502;6.918;2022-07-25T04:26:07;7.10;;;6.20;;
17214;SDS011;8723;51.502;6.918;2022-07-25T04:28:36;7.20;;;6.60;;
17214;SDS011;8723;51.502;6.918;2022-07-25T04:31:03;7.10;;;6.40;;
17214;SDS011;8723;51.502;6.918;2022-07-25T04:33:30;6.18;;;5.55;;
17214;SDS011;8723;51.502;6.918;2022-07-25T04:35:57;6.25;;;5.65;;
17214;SDS011;8723;51.502;6.918;2022-07-25T04:38:25;6.35;;;5.72;;
17214;SDS011;8723;51.502;6.918;2022-07-25T04:40:52;6.32;;;5.80;;
17214;SDS011;8723;51.502;6.918;2022-07-25T04:43:19;6.43;;;5.82;;
17214;SDS011;8723;51.502;6.918;2022-07-25T04:45:47;6.20;;;5.70;;
17214;SDS011;8723;51.502;6.918;2022-07-25T04:48:15;8.50;;;5.38;;
17214;SDS011;8723;51.502;6.918;2022-07-25T04:50:42;6.20;;;5.60;;
17214;SDS011;8723;51.502;6.918;2022-07-25T04:53:09;5.13;;;4.72;;
17214;SDS011;8723;51.502;6.918;2022-07-25T04:55:36;5.50;;;5.00;;
17214;SDS011;8723;51.502;6.918;2022-07-25T04:58:04;6.15;;;5.60;;
17214;SDS011;8723;51.502;6.918;2022-07-25T05:00:32;5.90;;;5.40;;
17214;SDS011;8723;51.502;6.918;2022-07-25T05:03:00;5.57;;;5.13;;
17214;SDS011;8723;51.502;6.918;2022-07-25T05:05:27;5.60;;;5.10;;
17214;SDS011;8723;51.502;6.918;2022-07-25T05:07:55;6.80;;;5.80;;
17214;SDS011;8723;51.502;6.918;2022-07-25T05:10:22;6.30;;;5.70;;
17214;SDS011;8723;51.502;6.918;2022-07-25T05:12:49;5.82;;;5.25;;
17214;SDS011;8723;51.502;6.918;2022-07-25T05:15:16;6.95;;;6.25;;
17214;SDS011;8723;51.502;6.918;2022-07-25T05:17:46;6.03;;;5.53;;
17214;SDS011;8723;51.502;6.918;2022-07-25T05:20:14;6.07;;;5.47;;
17214;SDS011;8723;51.502;6.918;2022-07-25T05:22:42;5.10;;;4.60;;
17214;SDS011;8723;51.502;6.918;2022-07-25T05:25:09;5.50;;;4.90;;
17214;SDS011;8723;51.502;6.918;2022-07-25T05:27:39;6.40;;;5.70;;
17214;SDS011;8723;51.502;6.918;2022-07-25T05:30:07;5.50;;;5.00;;
17214;SDS011;8723;51.502;6.918;2022-07-25T05:32:34;6.30;;;5.17;;
17214;SDS011;8723;51.502;6.918;2022-07-25T05:35:02;6.00;;;5.50;;
17214;SDS011;8723;51.502;6.918;2022-07-25T05:37:30;6.47;;;5.50;;
17214;SDS011;8723;51.502;6.918;2022-07-25T05:39:57;5.70;;;5.15;;
17214;SDS011;8723;51.502;6.918;2022-07-25T05:42:25;5.57;;;5.10;;
17214;SDS011;8723;51.502;6.918;2022-07-25T05:44:52;7.07;;;5.60;;
17214;SDS011;8723;51.502;6.918;2022-07-25T05:47:19;6.30;;;5.30;;
17214;SDS011;8723;51.502;6.918;2022-07-25T05:49:47;5.45;;;4.95;;
17214;SDS011;8723;51.502;6.918;2022-07-25T05:52:14;5.30;;;4.90;;
17214;SDS011;8723;51.502;6.918;2022-07-25T05:54:42;5.68;;;5.18;;
17214;SDS011;8723;51.502;6.918;2022-07-25T05:57:09;6.25;;;5.30;;
17214;SDS011;8723;51.502;6.918;2022-07-25T05:59:37;5.88;;;5.00;;
17214;SDS011;8723;51.502;6.918;2022-07-25T06:02:04;6.07;;;5.47;;
17214;SDS011;8723;51.502;6.918;2022-07-25T06:04:31;5.93;;;5.43;;
17214;SDS011;8723;51.502;6.918;2022-07-25T06:06:59;6.00;;;5.40;;
17214;SDS011;8723;51.502;6.918;2022-07-25T06:09:26;5.30;;;4.68;;
17214;SDS011;8723;51.502;6.918;2022-07-25T06:11:56;5.70;;;5.20;;
17214;SDS011;8723;51.502;6.918;2022-07-25T06:14:23;6.07;;;5.57;;
17214;SDS011;8723;51.502;6.918;2022-07-25T06:16:50;5.40;;;4.90;;
17214;SDS011;8723;51.502;6.918;2022-07-25T06:19:17;6.32;;;5.32;;
17214;SDS011;8723;51.502;6.918;2022-07-25T06:21:44;5.95;;;5.40;;
17214;SDS011;8723;51.502;6.918;2022-07-25T06:24:11;6.60;;;5.73;;
17214;SDS011;8723;51.502;6.918;2022-07-25T06:26:39;5.90;;;5.30;;
17214;SDS011;8723;51.502;6.918;2022-07-25T06:29:08;6.00;;;5.40;;
17214;SDS011;8723;51.502;6.918;2022-07-25T06:31:35;5.63;;;5.13;;
17214;SDS011;8723;51.502;6.918;2022-07-25T06:34:02;5.53;;;5.03;;
17214;SDS011;8723;51.502;6.918;2022-07-25T06:36:29;5.35;;;4.85;;
17214;SDS011;8723;51.502;6.918;2022-07-25T06:38:56;5.38;;;4.93;;
17214;SDS011;8723;51.502;6.918;2022-07-25T06:41:23;5.80;;;5.20;;
17214;SDS011;8723;51.502;6.918;2022-07-25T06:43:51;6.10;;;5.15;;
17214;SDS011;8723;51.502;6.918;2022-07-25T06:46:19;6.00;;;5.50;;
17214;SDS011;8723;51.502;6.918;2022-07-25T06:48:46;5.45;;;4.95;;
17214;SDS011;8723;51.502;6.918;2022-07-25T06:51:13;6.20;;;5.70;;
17214;SDS011;8723;51.502;6.918;2022-07-25T06:53:41;5.97;;;5.43;;
17214;SDS011;8723;51.502;6.918;2022-07-25T06:56:08;5.55;;;5.05;;
17214;SDS011;8723;51.502;6.918;2022-07-25T06:58:35;5.93;;;5.32;;
17214;SDS011;8723;51.502;6.918;2022-07-25T07:01:02;5.63;;;5.15;;
17214;SDS011;8723;51.502;6.918;2022-07-25T07:03:31;7.47;;;5.60;;
17214;SDS011;8723;51.502;6.918;2022-07-25T07:06:02;6.32;;;5.35;;
17214;SDS011;8723;51.502;6.918;2022-07-25T07:08:29;5.53;;;5.03;;
17214;SDS011;8723;51.502;6.918;2022-07-25T07:10:56;5.70;;;5.10;;
17214;SDS011;8723;51.502;6.918;2022-07-25T07:13:23;6.27;;;5.50;;
17214;SDS011;8723;51.502;6.918;2022-07-25T07:15:50;5.90;;;5.30;;
17214;SDS011;8723;51.502;6.918;2022-07-25T07:18:18;5.40;;;4.70;;
17214;SDS011;8723;51.502;6.918;2022-07-25T07:20:47;6.47;;;5.75;;
17214;SDS011;8723;51.502;6.918;2022-07-25T07:23:14;5.55;;;5.05;;
17214;SDS011;8723;51.502;6.918;2022-07-25T07:25:41;6.05;;;5.43;;
17214;SDS011;8723;51.502;6.918;2022-07-25T07:28:09;6.43;;;5.82;;
17214;SDS011;8723;51.502;6.918;2022-07-25T07:30:37;5.53;;;5.13;;
17214;SDS011;8723;51.502;6.918;2022-07-25T07:33:04;6.40;;;5.80;;
17214;SDS011;8723;51.502;6.918;2022-07-25T07:35:31;5.50;;;5.00;;
17214;SDS011;8723;51.502;6.918;2022-07-25T07:37:59;5.43;;;4.93;;
17214;SDS011;8723;51.502;6.918;2022-07-25T07:40:27;6.07;;;5.18;;
17214;SDS011;8723;51.502;6.918;2022-07-25T07:42:54;6.65;;;5.85;;
17214;SDS011;8723;51.502;6.918;2022-07-25T07:45:25;6.80;;;6.13;;
17214;SDS011;8723;51.502;6.918;2022-07-25T07:47:53;6.60;;;5.97;;
17214;SDS011;8723;51.502;6.918;2022-07-25T07:50:22;5.55;;;5.00;;
17214;SDS011;8723;51.502;6.918;2022-07-25T07:52:51;6.88;;;6.18;;
17214;SDS011;8723;51.502;6.918;2022-07-25T07:55:20;6.68;;;6.13;;
17214;SDS011;8723;51.502;6.918;2022-07-25T07:58:10;6.80;;;6.15;;
17214;SDS011;8723;51.502;6.918;2022-07-25T08:00:39;6.80;;;6.20;;
17214;SDS011;8723;51.502;6.918;2022-07-25T08:03:07;7.07;;;6.45;;
17214;SDS011;8723;51.502;6.918;2022-07-25T08:05:35;6.75;;;6.15;;
17214;SDS011;8723;51.502;6.918;2022-07-25T08:08:03;6.78;;;6.18;;
17214;SDS011;8723;51.502;6.918;2022-07-25T08:10:33;7.55;;;5.97;;
17214;SDS011;8723;51.502;6.918;2022-07-25T08:13:02;8.32;;;5.93;;
17214;SDS011;8723;51.502;6.918;2022-07-25T08:15:30;5.93;;;5.43;;
17214;SDS011;8723;51.502;6.918;2022-07-25T08:17:57;6.63;;;6.03;;
17214;SDS011;8723;51.502;6.918;2022-07-25T08:20:24;7.85;;;6.38;;
17214;SDS011;8723;51.502;6.918;2022-07-25T08:22:51;6.40;;;5.88;;
17214;SDS011;8723;51.502;6.918;2022-07-25T08:25:19;6.43;;;5.82;;
17214;SDS011;8723;51.502;6.918;2022-07-25T08:27:48;6.78;;;6.07;;
17214;SDS011;8723;51.502;6.918;2022-07-25T08:30:17;7.85;;;6.40;;
17214;SDS011;8723;51.502;6.918;2022-07-25T08:32:45;6.57;;;5.82;;
17214;SDS011;8723;51.502;6.918;2022-07-25T08:35:13;7.63;;;6.00;;
17214;SDS011;8723;51.502;6.918;2022-07-25T08:37:41;6.50;;;5.40;;
17214;SDS011;8723;51.502;6.918;2022-07-25T08:40:08;7.05;;;5.78;;
17214;SDS011;8723;51.502;6.918;2022-07-25T08:42:36;6.18;;;5.57;;
17214;SDS011;8723;51.502;6.918;2022-07-25T08:45:06;6.55;;;5.95;;
17214;SDS011;8723;51.502;6.918;2022-07-25T08:47:33;6.70;;;6.00;;
17214;SDS011;8723;51.502;6.918;2022-07-25T08:50:01;7.43;;;6.03;;
17214;SDS011;8723;51.502;6.918;2022-07-25T08:52:28;6.78;;;6.07;;
17214;SDS011;8723;51.502;6.918;2022-07-25T08:54:59;5.88;;;5.30;;
17214;SDS011;8723;51.502;6.918;2022-07-25T08:57:26;6.18;;;5.65;;
17214;SDS011;8723;51.502;6.918;2022-07-25T08:59:55;6.65;;;6.05;;
17214;SDS011;8723;51.502;6.918;2022-07-25T09:02:24;7.55;;;5.65;;
17214;SDS011;8723;51.502;6.918;2022-07-25T09:04:51;6.80;;;6.15;;
17214;SDS011;8723;51.502;6.918;2022-07-25T09:07:27;6.45;;;5.88;;
17214;SDS011;8723;51.502;6.918;2022-07-25T09:09:54;7.15;;;5.90;;
17214;SDS011;8723;51.502;6.918;2022-07-25T09:12:24;6.53;;;6.03;;
17214;SDS011;8723;51.502;6.918;2022-07-25T09:14:51;6.28;;;5.68;;
17214;SDS011;8723;51.502;6.918;2022-07-25T09:17:18;6.97;;;6.00;;
17214;SDS011;8723;51.502;6.918;2022-07-25T09:19:51;7.97;;;6.38;;
17214;SDS011;8723;51.502;6.918;2022-07-25T09:22:19;6.85;;;6.15;;
17214;SDS011;8723;51.502;6.918;2022-07-25T09:24:46;7.28;;;6.47;;
17214;SDS011;8723;51.502;6.918;2022-07-25T09:27:14;7.53;;;6.80;;
17214;SDS011;8723;51.502;6.918;2022-07-25T09:29:42;6.53;;;5.70;;
17214;SDS011;8723;51.502;6.918;2022-07-25T09:32:14;6.35;;;5.75;;
17214;SDS011;8723;51.502;6.918;2022-07-25T09:34:42;7.13;;;6.43;;
17214;SDS011;8723;51.502;6.918;2022-07-25T09:37:12;6.63;;;6.00;;
17214;SDS011;8723;51.502;6.918;2022-07-25T09:39:40;7.32;;;6.40;;
17214;SDS011;8723;51.502;6.918;2022-07-25T09:42:18;6.50;;;5.90;;
17214;SDS011;8723;51.502;6.918;2022-07-25T09:44:56;7.63;;;6.60;;
17214;SDS011;8723;51.502;6.918;2022-07-25T09:47:23;6.72;;;6.13;;
17214;SDS011;8723;51.502;6.918;2022-07-25T09:49:50;7.25;;;6.53;;
17214;SDS011;8723;51.502;6.918;2022-07-25T09:52:19;7.18;;;6.50;;
17214;SDS011;8723;51.502;6.918;2022-07-25T09:54:46;7.88;;;6.40;;
17214;SDS011;8723;51.502;6.918;2022-07-25T09:57:13;6.70;;;6.10;;
17214;SDS011;8723;51.502;6.918;2022-07-25T09:59:41;7.38;;;6.50;;
17214;SDS011;8723;51.502;6.918;2022-07-25T10:02:09;6.88;;;6.28;;
17214;SDS011;8723;51.502;6.918;2022-07-25T10:04:46;6.57;;;5.93;;
17214;SDS011;8723;51.502;6.918;2022-07-25T10:07:19;8.90;;;6.28;;
17214;SDS011;8723;51.502;6.918;2022-07-25T10:09:48;6.40;;;5.80;;
17214;SDS011;8723;51.502;6.918;2022-07-25T10:12:17;7.05;;;6.00;;
17214;SDS011;8723;51.502;6.918;2022-07-25T10:15:02;6.30;;;5.68;;
17214;SDS011;8723;51.502;6.918;2022-07-25T10:17:29;6.07;;;5.45;;
17214;SDS011;8723;51.502;6.918;2022-07-25T10:19:57;8.32;;;5.80;;
17214;SDS011;8723;51.502;6.918;2022-07-25T10:22:35;6.00;;;5.18;;
17214;SDS011;8723;51.502;6.918;2022-07-25T10:25:06;5.60;;;5.10;;
17214;SDS011;8723;51.502;6.918;2022-07-25T10:27:41;5.35;;;4.95;;
17214;SDS011;8723;51.502;6.918;2022-07-25T10:30:09;5.65;;;5.15;;
17214;SDS011;8723;51.502;6.918;2022-07-25T10:32:37;5.80;;;5.17;;
17214;SDS011;8723;51.502;6.918;2022-07-25T10:35:15;5.68;;;5.07;;
17214;SDS011;8723;51.502;6.918;2022-07-25T10:37:44;4.90;;;4.15;;
17214;SDS011;8723;51.502;6.918;2022-07-25T10:40:23;6.80;;;4.93;;
17214;SDS011;8723;51.502;6.918;2022-07-25T10:42:50;5.38;;;4.70;;
17214;SDS011;8723;51.502;6.918;2022-07-25T10:45:24;5.35;;;4.70;;
17214;SDS011;8723;51.502;6.918;2022-07-25T10:47:53;5.40;;;4.80;;
17214;SDS011;8723;51.502;6.918;2022-07-25T10:50:21;5.22;;;4.72;;
17214;SDS011;8723;51.502;6.918;2022-07-25T10:52:58;4.28;;;3.90;;
17214;SDS011;8723;51.502;6.918;2022-07-25T10:55:26;6.78;;;4.25;;
17214;SDS011;8723;51.502;6.918;2022-07-25T10:58:03;6.75;;;4.30;;
17214;SDS011;8723;51.502;6.918;2022-07-25T11:00:31;5.30;;;3.80;;
17214;SDS011;8723;51.502;6.918;2022-07-25T11:02:58;4.30;;;3.90;;
17214;SDS011;8723;51.502;6.918;2022-07-25T11:05:25;5.32;;;4.78;;
17214;SDS011;8723;51.502;6.918;2022-07-25T11:07:54;4.90;;;4.00;;
17214;SDS011;8723;51.502;6.918;2022-07-25T11:10:26;4.60;;;4.05;;
17214;SDS011;8723;51.502;6.918;2022-07-25T11:12:53;4.20;;;3.87;;
17214;SDS011;8723;51.502;6.918;2022-07-25T11:15:22;4.53;;;4.13;;
17214;SDS011;8723;51.502;6.918;2022-07-25T11:17:50;5.40;;;4.00;;
17214;SDS011;8723;51.502;6.918;2022-07-25T11:20:17;4.30;;;3.90;;
17214;SDS011;8723;51.502;6.918;2022-07-25T11:22:50;4.60;;;4.20;;
17214;SDS011;8723;51.502;6.918;2022-07-25T11:25:18;4.22;;;3.85;;
17214;SDS011;8723;51.502;6.918;2022-07-25T11:27:53;4.97;;;3.33;;
17214;SDS011;8723;51.502;6.918;2022-07-25T11:30:21;5.35;;;4.22;;
17214;SDS011;8723;51.502;6.918;2022-07-25T11:32:49;4.10;;;3.67;;
17214;SDS011;8723;51.502;6.918;2022-07-25T11:35:19;4.75;;;4.10;;
17214;SDS011;8723;51.502;6.918;2022-07-25T11:37:46;6.90;;;4.05;;
17214;SDS011;8723;51.502;6.918;2022-07-25T11:40:15;4.05;;;3.65;;
17214;SDS011;8723;51.502;6.918;2022-07-25T11:42:44;4.30;;;3.90;;
17214;SDS011;8723;51.502;6.918;2022-07-25T11:45:16;5.40;;;3.83;;
17214;SDS011;8723;51.502;6.918;2022-07-25T11:47:44;4.28;;;3.88;;
17214;SDS011;8723;51.502;6.918;2022-07-25T11:50:11;7.53;;;4.65;;
17214;SDS011;8723;51.502;6.918;2022-07-25T11:52:40;4.47;;;3.80;;
17214;SDS011;8723;51.502;6.918;2022-07-25T11:55:08;4.00;;;3.60;;
17214;SDS011;8723;51.502;6.918;2022-07-25T11:57:36;5.28;;;3.72;;
17214;SDS011;8723;51.502;6.918;2022-07-25T12:00:06;5.90;;;3.47;;
17214;SDS011;8723;51.502;6.918;2022-07-25T12:02:35;4.05;;;3.20;;
17214;SDS011;8723;51.502;6.918;2022-07-25T12:05:03;3.72;;;3.40;;
17214;SDS011;8723;51.502;6.918;2022-07-25T12:07:37;4.25;;;3.80;;
17214;SDS011;8723;51.502;6.918;2022-07-25T12:10:06;3.58;;;3.20;;
17214;SDS011;8723;51.502;6.918;2022-07-25T12:12:44;3.53;;;3.15;;
17214;SDS011;8723;51.502;6.918;2022-07-25T12:15:12;4.63;;;3.17;;
17214;SDS011;8723;51.502;6.918;2022-07-25T12:17:41;4.43;;;3.38;;
17214;SDS011;8723;51.502;6.918;2022-07-25T12:20:12;6.82;;;3.70;;
17214;SDS011;8723;51.502;6.918;2022-07-25T12:22:40;3.60;;;3.30;;
17214;SDS011;8723;51.502;6.918;2022-07-25T12:25:07;3.80;;;3.50;;
17214;SDS011;8723;51.502;6.918;2022-07-25T12:27:35;4.78;;;3.33;;
17214;SDS011;8723;51.502;6.918;2022-07-25T12:30:02;4.63;;;3.42;;
17214;SDS011;8723;51.502;6.918;2022-07-25T12:32:29;4.53;;;3.40;;
17214;SDS011;8723;51.502;6.918;2022-07-25T12:34:58;3.20;;;2.90;;
17214;SDS011;8723;51.502;6.918;2022-07-25T12:37:25;4.07;;;3.45;;
17214;SDS011;8723;51.502;6.918;2022-07-25T12:39:52;3.00;;;2.72;;
17214;SDS011;8723;51.502;6.918;2022-07-25T12:42:20;3.95;;;2.90;;
17214;SDS011;8723;51.502;6.918;2022-07-25T12:44:47;4.97;;;3.17;;
17214;SDS011;8723;51.502;6.918;2022-07-25T12:47:14;6.95;;;3.15;;
17214;SDS011;8723;51.502;6.918;2022-07-25T12:49:41;4.28;;;3.25;;
17214;SDS011;8723;51.502;6.918;2022-07-25T12:52:10;5.57;;;3.28;;
17214;SDS011;8723;51.502;6.918;2022-07-25T12:54:37;6.90;;;3.70;;
17214;SDS011;8723;51.502;6.918;2022-07-25T12:57:04;4.78;;;3.33;;
17214;SDS011;8723;51.502;6.918;2022-07-25T12:59:32;4.05;;;3.03;;
17214;SDS011;8723;51.502;6.918;2022-07-25T13:01:59;6.40;;;3.30;;
17214;SDS011;8723;51.502;6.918;2022-07-25T13:04:26;4.78;;;3.00;;
17214;SDS011;8723;51.502;6.918;2022-07-25T13:06:53;6.70;;;3.50;;
17214;SDS011;8723;51.502;6.918;2022-07-25T13:09:23;6.82;;;3.60;;
17214;SDS011;8723;51.502;6.918;2022-07-25T13:11:50;5.25;;;3.03;;
17214;SDS011;8723;51.502;6.918;2022-07-25T13:14:17;6.82;;;3.38;;
17214;SDS011;8723;51.502;6.918;2022-07-25T13:16:44;3.13;;;2.83;;
17214;SDS011;8723;51.502;6.918;2022-07-25T13:19:12;6.80;;;2.90;;
17214;SDS011;8723;51.502;6.918;2022-07-25T13:21:40;3.20;;;2.90;;
17214;SDS011;8723;51.502;6.918;2022-07-25T13:24:07;3.90;;;2.92;;
17214;SDS011;8723;51.502;6.918;2022-07-25T13:26:36;3.75;;;3.10;;
17214;SDS011;8723;51.502;6.918;2022-07-25T13:29:04;4.00;;;3.20;;
17214;SDS011;8723;51.502;6.918;2022-07-25T13:31:32;3.37;;;2.83;;
17214;SDS011;8723;51.502;6.918;2022-07-25T13:34:00;3.78;;;2.80;;
17214;SDS011;8723;51.502;6.918;2022-07-25T13:36:27;4.87;;;2.87;;
17214;SDS011;8723;51.502;6.918;2022-07-25T13:38:54;3.00;;;2.70;;
17214;SDS011;8723;51.502;6.918;2022-07-25T13:41:21;3.97;;;2.75;;
17214;SDS011;8723;51.502;6.918;2022-07-25T13:43:50;3.90;;;2.78;;
17214;SDS011;8723;51.502;6.918;2022-07-25T13:46:17;3.80;;;2.80;;
17214;SDS011;8723;51.502;6.918;2022-07-25T13:48:45;4.90;;;3.05;;
17214;SDS011;8723;51.502;6.918;2022-07-25T13:51:12;3.20;;;2.60;;
17214;SDS011;8723;51.502;6.918;2022-07-25T13:53:39;4.32;;;2.70;;
17214;SDS011;8723;51.502;6.918;2022-07-25T13:56:09;5.18;;;2.65;;
17214;SDS011;8723;51.502;6.918;2022-07-25T13:58:37;2.67;;;2.47;;
17214;SDS011;8723;51.502;6.918;2022-07-25T14:01:06;3.90;;;2.50;;
17214;SDS011;8723;51.502;6.918;2022-07-25T14:03:33;3.00;;;2.40;;
17214;SDS011;8723;51.502;6.918;2022-07-25T14:06:00;2.57;;;2.37;;
17214;SDS011;8723;51.502;6.918;2022-07-25T14:08:28;2.50;;;2.30;;
17214;SDS011;8723;51.502;6.918;2022-07-25T14:10:55;2.60;;;2.40;;
17214;SDS011;8723;51.502;6.918;2022-07-25T14:13:22;2.70;;;2.40;;
17214;SDS011;8723;51.502;6.918;2022-07-25T14:15:49;4.05;;;2.33;;
17214;SDS011;8723;51.502;6.918;2022-07-25T14:18:18;3.22;;;2.40;;
17214;SDS011;8723;51.502;6.918;2022-07-25T14:20:45;3.10;;;2.40;;
17214;SDS011;8723;51.502;6.918;2022-07-25T14:23:13;5.25;;;2.78;;
17214;SDS011;8723;51.502;6.918;2022-07-25T14:25:40;3.90;;;2.60;;
17214;SDS011;8723;51.502;6.918;2022-07-25T14:28:08;3.70;;;2.80;;
17214;SDS011;8723;51.502;6.918;2022-07-25T14:30:36;3.83;;;2.70;;
17214;SDS011;8723;51.502;6.918;2022-07-25T14:33:03;3.58;;;2.40;;
17214;SDS011;8723;51.502;6.918;2022-07-25T14:35:31;6.07;;;2.70;;
17214;SDS011;8723;51.502;6.918;2022-07-25T14:37:59;5.63;;;2.78;;
17214;SDS011;8723;51.502;6.918;2022-07-25T14:40:27;3.28;;;2.35;;
17214;SDS011;8723;51.502;6.918;2022-07-25T14:42:54;4.15;;;2.60;;
17214;SDS011;8723;51.502;6.918;2022-07-25T14:45:21;6.47;;;2.85;;
17214;SDS011;8723;51.502;6.918;2022-07-25T14:47:48;6.25;;;3.42;;
17214;SDS011;8723;51.502;6.918;2022-07-25T14:50:15;4.57;;;3.67;;
17214;SDS011;8723;51.502;6.918;2022-07-25T14:52:44;5.55;;;3.50;;
17214;SDS011;8723;51.502;6.918;2022-07-25T14:55:11;3.70;;;3.40;;
17214;SDS011;8723;51.502;6.918;2022-07-25T14:57:38;4.50;;;2.90;;
17214;SDS011;8723;51.502;6.918;2022-07-25T15:00:06;5.35;;;3.30;;
17214;SDS011;8723;51.502;6.918;2022-07-25T15:02:33;4.77;;;2.70;;
17214;SDS011;8723;51.502;6.918;2022-07-25T15:05:00;3.97;;;2.85;;